Newport, Mississippi
Current Conditions -  °F | °C
As of 6:22 PM on Sunday 25 Jan 2015 (Local Time) from KMEM Reporting Station
Overcast Overcast  
Wind Chill: 39°   Ceiling: 5000
Heat Index: 46°   Visibility: 10mi
Dew Point: 37°   Wind: 17mph
Humidity: 71%   Direction: 290°WNW
Pressure: 29.82"   Gusts: 28mph
Location:  34.9155°N, 90.1878°W
Report Text: KMEM 260022Z 29015G24KT 10SM OVC050 08/03 A2982 RMK AO2 $
Loading
Personal Weather Stations






























Interactive Weather Map New forecast layout! Learn more

10-Day Weather Forecast

Advertisements
Track Severe Weather on mobile